This is the latest recevied weather packets stored in our database for station/object KE0LFX. If no packets are shown the sender has not sent any weather packets the latest 1 day(s).
| Time | Temp. | Humidity | Pressure | Rain* | Wind** | Luminosity | Snow |
|---|---|---|---|---|---|---|---|
| 1778089886 | 10.56° C | 43% | 1021 hPa | 0 mm | - | 235 W/m² | - |
| 1778088368 | 10° C | 44% | 1021.3 hPa | 0 mm | - | 294 W/m² | - |
| 1778088064 | 10° C | 46% | 1021.5 hPa | 0 mm | - | 316 W/m² | - |
| 1778087762 | 10° C | 46% | 1021.5 hPa | 0 mm | - | 257 W/m² | - |
| 1778084718 | 10° C | 44% | 1021.1 hPa | 0 mm | - | 163 W/m² | - |
| 1778083199 | 10° C | 47% | 1021 hPa | 0 mm | - | 163 W/m² | - |
| 1778081783 | 10° C | 49% | 1021 hPa | 0 mm | - | 86 W/m² | - |
| 1778080270 | 8.89° C | 51% | 1021 hPa | 0 mm | - | 55 W/m² | - |
| 1778078150 | 7.78° C | 53% | 1021 hPa | 0 mm | - | 130 W/m² | - |
| 1778077243 | 7.78° C | 53% | 1021.1 hPa | 0 mm | - | 113 W/m² | - |
| 1778076033 | 6.67° C | 56% | 1021 hPa | 0 mm | - | 55 W/m² | - |
| 1778075122 | 6.67° C | 55% | 1021 hPa | 0 mm | - | 72 W/m² | - |
| 1778073607 | 6.11° C | 56% | 1020.9 hPa | 0 mm | - | 89 W/m² | - |
| 1778073304 | 6.11° C | 57% | 1020.7 hPa | 0 mm | - | 79 W/m² | - |
| 1778071790 | 5.56° C | 59% | 1020.4 hPa | 0 mm | - | 75 W/m² | - |
| 1778069976 | 5° C | 62% | 1019.8 hPa | 0 mm | - | 68 W/m² | - |
| 1778068764 | 5° C | 64% | 1019.4 hPa | 0 mm | - | 39 W/m² | - |
| 1778068462 | 5° C | 64% | 1019.6 hPa | 0 mm | - | 39 W/m² | - |
| 1778068160 | 4.44° C | 64% | 1019.4 hPa | 0 mm | - | 41 W/m² | - |
| 1778067857 | 4.44° C | 65% | 1019 hPa | 0 mm | - | 32 W/m² | - |
| 1778067556 | 4.44° C | 64% | 1019.3 hPa | 0 mm | - | 21 W/m² | - |
| 1778065133 | 4.44° C | 64% | 1018.6 hPa | 0 mm | - | 1 W/m² | - |
| 1778064225 | 5° C | 62% | 1018.5 hPa | 0 mm | - | 0 W/m² | - |
| 1778062407 | 5° C | 64% | 1018 hPa | 0 mm | - | 0 W/m² | - |
| 1778061804 | 5° C | 65% | 1018.4 hPa | 0 mm | - | 0 W/m² | - |
* Rain latest hour (hover to see other rain measurements)
** Current wind speed in m/s (hover to see current wind gust speed)